sensor_id;sensor_type;location;lat;lon;timestamp;P1;durP1;ratioP1;P2;durP2;ratioP2
4638;SDS011;2332;38.646;-9.154;2024-02-21T00:00:28;32.77;;;14.73;;
4638;SDS011;2332;38.646;-9.154;2024-02-21T00:02:53;28.83;;;15.10;;
4638;SDS011;2332;38.646;-9.154;2024-02-21T00:05:19;37.77;;;14.47;;
4638;SDS011;2332;38.646;-9.154;2024-02-21T00:07:44;30.50;;;13.93;;
4638;SDS011;2332;38.646;-9.154;2024-02-21T00:10:12;40.40;;;15.30;;
4638;SDS011;2332;38.646;-9.154;2024-02-21T00:12:38;27.73;;;14.03;;
4638;SDS011;2332;38.646;-9.154;2024-02-21T00:15:03;26.50;;;13.77;;
4638;SDS011;2332;38.646;-9.154;2024-02-21T00:17:28;26.43;;;14.10;;
4638;SDS011;2332;38.646;-9.154;2024-02-21T00:19:54;32.23;;;14.37;;
4638;SDS011;2332;38.646;-9.154;2024-02-21T00:22:19;28.37;;;15.00;;
4638;SDS011;2332;38.646;-9.154;2024-02-21T00:24:44;32.87;;;14.50;;
4638;SDS011;2332;38.646;-9.154;2024-02-21T00:27:10;26.80;;;13.67;;
4638;SDS011;2332;38.646;-9.154;2024-02-21T00:29:35;31.67;;;15.57;;
4638;SDS011;2332;38.646;-9.154;2024-02-21T00:32:01;28.10;;;14.07;;
4638;SDS011;2332;38.646;-9.154;2024-02-21T00:34:26;29.93;;;14.43;;
4638;SDS011;2332;38.646;-9.154;2024-02-21T00:36:51;34.67;;;13.97;;
4638;SDS011;2332;38.646;-9.154;2024-02-21T00:39:17;32.03;;;15.27;;
4638;SDS011;2332;38.646;-9.154;2024-02-21T00:41:42;26.30;;;13.27;;
4638;SDS011;2332;38.646;-9.154;2024-02-21T00:44:07;31.63;;;15.30;;
4638;SDS011;2332;38.646;-9.154;2024-02-21T00:46:33;29.37;;;15.43;;
4638;SDS011;2332;38.646;-9.154;2024-02-21T00:48:58;31.03;;;14.40;;
4638;SDS011;2332;38.646;-9.154;2024-02-21T00:51:24;35.70;;;18.07;;
4638;SDS011;2332;38.646;-9.154;2024-02-21T00:53:49;38.37;;;16.33;;
4638;SDS011;2332;38.646;-9.154;2024-02-21T00:56:16;32.23;;;15.13;;
4638;SDS011;2332;38.646;-9.154;2024-02-21T00:58:41;29.30;;;14.27;;
4638;SDS011;2332;38.646;-9.154;2024-02-21T01:01:07;24.03;;;13.33;;
4638;SDS011;2332;38.646;-9.154;2024-02-21T01:03:32;40.03;;;14.60;;
4638;SDS011;2332;38.646;-9.154;2024-02-21T01:05:57;31.47;;;15.07;;
4638;SDS011;2332;38.646;-9.154;2024-02-21T01:08:23;31.63;;;13.10;;
4638;SDS011;2332;38.646;-9.154;2024-02-21T01:10:48;32.70;;;15.20;;
4638;SDS011;2332;38.646;-9.154;2024-02-21T01:13:14;27.83;;;13.53;;
4638;SDS011;2332;38.646;-9.154;2024-02-21T01:15:39;23.57;;;13.10;;
4638;SDS011;2332;38.646;-9.154;2024-02-21T01:18:04;34.67;;;17.00;;
4638;SDS011;2332;38.646;-9.154;2024-02-21T01:20:30;25.93;;;14.03;;
4638;SDS011;2332;38.646;-9.154;2024-02-21T01:22:55;28.70;;;14.43;;
4638;SDS011;2332;38.646;-9.154;2024-02-21T01:25:21;29.07;;;14.50;;
4638;SDS011;2332;38.646;-9.154;2024-02-21T01:27:46;26.43;;;14.33;;
4638;SDS011;2332;38.646;-9.154;2024-02-21T01:30:11;30.93;;;15.03;;
4638;SDS011;2332;38.646;-9.154;2024-02-21T01:32:37;33.73;;;14.00;;
4638;SDS011;2332;38.646;-9.154;2024-02-21T01:35:02;34.93;;;13.27;;
4638;SDS011;2332;38.646;-9.154;2024-02-21T01:37:28;28.60;;;13.63;;
4638;SDS011;2332;38.646;-9.154;2024-02-21T01:39:53;32.67;;;13.60;;
4638;SDS011;2332;38.646;-9.154;2024-02-21T01:42:18;31.47;;;13.83;;
4638;SDS011;2332;38.646;-9.154;2024-02-21T01:44:44;27.67;;;13.00;;
4638;SDS011;2332;38.646;-9.154;2024-02-21T01:47:10;23.23;;;12.90;;
4638;SDS011;2332;38.646;-9.154;2024-02-21T01:49:35;26.70;;;12.93;;
4638;SDS011;2332;38.646;-9.154;2024-02-21T01:52:01;35.87;;;13.13;;
4638;SDS011;2332;38.646;-9.154;2024-02-21T01:54:28;29.13;;;13.67;;
4638;SDS011;2332;38.646;-9.154;2024-02-21T01:56:54;34.77;;;15.07;;
4638;SDS011;2332;38.646;-9.154;2024-02-21T01:59:19;31.73;;;14.53;;
4638;SDS011;2332;38.646;-9.154;2024-02-21T02:01:46;28.57;;;14.17;;
4638;SDS011;2332;38.646;-9.154;2024-02-21T02:04:12;32.43;;;15.13;;
4638;SDS011;2332;38.646;-9.154;2024-02-21T02:06:39;29.90;;;15.53;;
4638;SDS011;2332;38.646;-9.154;2024-02-21T02:09:04;34.37;;;15.20;;
4638;SDS011;2332;38.646;-9.154;2024-02-21T02:11:31;31.13;;;14.87;;
4638;SDS011;2332;38.646;-9.154;2024-02-21T02:13:57;31.90;;;14.90;;
4638;SDS011;2332;38.646;-9.154;2024-02-21T02:16:22;30.70;;;14.83;;
4638;SDS011;2332;38.646;-9.154;2024-02-21T02:18:47;28.63;;;14.37;;
4638;SDS011;2332;38.646;-9.154;2024-02-21T02:21:34;31.47;;;15.10;;
4638;SDS011;2332;38.646;-9.154;2024-02-21T02:23:58;35.20;;;15.30;;
4638;SDS011;2332;38.646;-9.154;2024-02-21T02:26:24;31.10;;;15.27;;
4638;SDS011;2332;38.646;-9.154;2024-02-21T02:28:49;31.67;;;15.80;;
4638;SDS011;2332;38.646;-9.154;2024-02-21T02:31:15;43.67;;;16.07;;
4638;SDS011;2332;38.646;-9.154;2024-02-21T02:33:42;30.43;;;17.07;;
4638;SDS011;2332;38.646;-9.154;2024-02-21T02:36:07;41.50;;;17.50;;
4638;SDS011;2332;38.646;-9.154;2024-02-21T02:38:33;33.37;;;17.20;;
4638;SDS011;2332;38.646;-9.154;2024-02-21T02:40:58;31.07;;;17.37;;
4638;SDS011;2332;38.646;-9.154;2024-02-21T02:43:23;34.07;;;17.50;;
4638;SDS011;2332;38.646;-9.154;2024-02-21T02:45:49;35.20;;;18.60;;
4638;SDS011;2332;38.646;-9.154;2024-02-21T02:48:14;34.47;;;17.73;;
4638;SDS011;2332;38.646;-9.154;2024-02-21T02:50:39;38.80;;;17.50;;
4638;SDS011;2332;38.646;-9.154;2024-02-21T02:53:05;33.00;;;16.50;;
4638;SDS011;2332;38.646;-9.154;2024-02-21T02:55:30;34.13;;;18.10;;
4638;SDS011;2332;38.646;-9.154;2024-02-21T02:57:56;29.10;;;16.87;;
4638;SDS011;2332;38.646;-9.154;2024-02-21T03:00:22;35.90;;;16.80;;
4638;SDS011;2332;38.646;-9.154;2024-02-21T03:02:48;25.97;;;15.30;;
4638;SDS011;2332;38.646;-9.154;2024-02-21T03:05:15;36.00;;;15.57;;
4638;SDS011;2332;38.646;-9.154;2024-02-21T03:07:40;36.97;;;15.80;;
4638;SDS011;2332;38.646;-9.154;2024-02-21T03:10:06;35.70;;;16.30;;
4638;SDS011;2332;38.646;-9.154;2024-02-21T03:12:31;29.53;;;16.87;;
4638;SDS011;2332;38.646;-9.154;2024-02-21T03:14:57;26.57;;;16.00;;
4638;SDS011;2332;38.646;-9.154;2024-02-21T03:17:22;34.77;;;17.20;;
4638;SDS011;2332;38.646;-9.154;2024-02-21T03:19:48;35.00;;;16.50;;
4638;SDS011;2332;38.646;-9.154;2024-02-21T03:22:15;33.57;;;16.07;;
4638;SDS011;2332;38.646;-9.154;2024-02-21T03:24:41;35.17;;;15.80;;
4638;SDS011;2332;38.646;-9.154;2024-02-21T03:27:06;30.87;;;16.07;;
4638;SDS011;2332;38.646;-9.154;2024-02-21T03:29:31;32.80;;;14.90;;
4638;SDS011;2332;38.646;-9.154;2024-02-21T03:31:57;31.37;;;15.53;;
4638;SDS011;2332;38.646;-9.154;2024-02-21T03:34:22;30.73;;;16.47;;
4638;SDS011;2332;38.646;-9.154;2024-02-21T03:36:47;30.13;;;15.03;;
4638;SDS011;2332;38.646;-9.154;2024-02-21T03:39:13;34.47;;;16.87;;
4638;SDS011;2332;38.646;-9.154;2024-02-21T03:41:38;29.40;;;15.37;;
4638;SDS011;2332;38.646;-9.154;2024-02-21T03:44:04;24.87;;;14.37;;
4638;SDS011;2332;38.646;-9.154;2024-02-21T03:46:30;27.90;;;15.03;;
4638;SDS011;2332;38.646;-9.154;2024-02-21T03:48:56;27.37;;;15.60;;
4638;SDS011;2332;38.646;-9.154;2024-02-21T03:51:21;35.23;;;17.70;;
4638;SDS011;2332;38.646;-9.154;2024-02-21T03:53:46;32.77;;;17.37;;
4638;SDS011;2332;38.646;-9.154;2024-02-21T03:56:12;33.10;;;16.90;;
4638;SDS011;2332;38.646;-9.154;2024-02-21T03:58:37;33.30;;;15.80;;
4638;SDS011;2332;38.646;-9.154;2024-02-21T04:01:03;37.13;;;18.03;;
4638;SDS011;2332;38.646;-9.154;2024-02-21T04:03:28;37.23;;;17.90;;
4638;SDS011;2332;38.646;-9.154;2024-02-21T04:05:54;34.47;;;15.90;;
4638;SDS011;2332;38.646;-9.154;2024-02-21T04:08:19;35.33;;;18.10;;
4638;SDS011;2332;38.646;-9.154;2024-02-21T04:10:45;29.37;;;16.13;;
4638;SDS011;2332;38.646;-9.154;2024-02-21T04:13:10;29.43;;;16.00;;
4638;SDS011;2332;38.646;-9.154;2024-02-21T04:15:35;28.40;;;15.43;;
4638;SDS011;2332;38.646;-9.154;2024-02-21T04:18:01;31.07;;;17.30;;
4638;SDS011;2332;38.646;-9.154;2024-02-21T04:20:28;41.93;;;17.17;;
4638;SDS011;2332;38.646;-9.154;2024-02-21T04:22:53;31.50;;;16.93;;
4638;SDS011;2332;38.646;-9.154;2024-02-21T04:25:19;30.23;;;16.30;;
4638;SDS011;2332;38.646;-9.154;2024-02-21T04:27:44;32.70;;;16.23;;
4638;SDS011;2332;38.646;-9.154;2024-02-21T04:30:10;23.53;;;15.67;;
4638;SDS011;2332;38.646;-9.154;2024-02-21T04:32:35;27.83;;;16.73;;
4638;SDS011;2332;38.646;-9.154;2024-02-21T04:35:01;31.03;;;16.30;;
4638;SDS011;2332;38.646;-9.154;2024-02-21T04:37:26;28.47;;;15.87;;
4638;SDS011;2332;38.646;-9.154;2024-02-21T04:39:52;29.30;;;15.80;;
4638;SDS011;2332;38.646;-9.154;2024-02-21T04:42:17;27.43;;;15.13;;
4638;SDS011;2332;38.646;-9.154;2024-02-21T04:44:42;29.90;;;15.43;;
4638;SDS011;2332;38.646;-9.154;2024-02-21T04:47:08;27.30;;;16.17;;
4638;SDS011;2332;38.646;-9.154;2024-02-21T04:49:33;38.53;;;17.10;;
4638;SDS011;2332;38.646;-9.154;2024-02-21T04:51:59;30.50;;;16.50;;
4638;SDS011;2332;38.646;-9.154;2024-02-21T04:54:25;30.53;;;16.90;;
4638;SDS011;2332;38.646;-9.154;2024-02-21T04:56:50;27.73;;;16.37;;
4638;SDS011;2332;38.646;-9.154;2024-02-21T04:59:15;29.80;;;15.20;;
4638;SDS011;2332;38.646;-9.154;2024-02-21T05:01:41;25.13;;;15.30;;
4638;SDS011;2332;38.646;-9.154;2024-02-21T05:04:06;24.27;;;13.73;;
4638;SDS011;2332;38.646;-9.154;2024-02-21T05:06:32;27.50;;;13.40;;
4638;SDS011;2332;38.646;-9.154;2024-02-21T05:09:01;30.73;;;14.20;;
4638;SDS011;2332;38.646;-9.154;2024-02-21T05:11:27;25.27;;;14.20;;
4638;SDS011;2332;38.646;-9.154;2024-02-21T05:13:52;27.43;;;14.43;;
4638;SDS011;2332;38.646;-9.154;2024-02-21T05:16:18;20.73;;;13.50;;
4638;SDS011;2332;38.646;-9.154;2024-02-21T05:18:44;32.83;;;13.80;;
4638;SDS011;2332;38.646;-9.154;2024-02-21T05:21:09;30.03;;;14.60;;
4638;SDS011;2332;38.646;-9.154;2024-02-21T05:23:35;28.13;;;14.30;;
4638;SDS011;2332;38.646;-9.154;2024-02-21T05:26:00;30.67;;;15.30;;
4638;SDS011;2332;38.646;-9.154;2024-02-21T05:28:26;30.47;;;15.23;;
4638;SDS011;2332;38.646;-9.154;2024-02-21T05:30:51;33.13;;;14.60;;
4638;SDS011;2332;38.646;-9.154;2024-02-21T05:33:16;36.13;;;16.33;;
4638;SDS011;2332;38.646;-9.154;2024-02-21T05:35:46;30.00;;;16.33;;
4638;SDS011;2332;38.646;-9.154;2024-02-21T05:38:12;38.87;;;17.07;;
4638;SDS011;2332;38.646;-9.154;2024-02-21T05:40:37;31.93;;;15.70;;
4638;SDS011;2332;38.646;-9.154;2024-02-21T05:43:02;29.77;;;17.27;;
4638;SDS011;2332;38.646;-9.154;2024-02-21T05:45:28;26.20;;;15.73;;
4638;SDS011;2332;38.646;-9.154;2024-02-21T05:47:53;28.20;;;15.80;;
4638;SDS011;2332;38.646;-9.154;2024-02-21T05:50:19;29.37;;;15.97;;
4638;SDS011;2332;38.646;-9.154;2024-02-21T05:52:46;29.13;;;16.40;;
4638;SDS011;2332;38.646;-9.154;2024-02-21T05:55:12;29.40;;;15.50;;
4638;SDS011;2332;38.646;-9.154;2024-02-21T05:57:37;33.57;;;15.80;;
4638;SDS011;2332;38.646;-9.154;2024-02-21T06:00:03;29.43;;;15.77;;
4638;SDS011;2332;38.646;-9.154;2024-02-21T06:02:30;24.70;;;15.63;;
4638;SDS011;2332;38.646;-9.154;2024-02-21T06:04:55;31.43;;;14.70;;
4638;SDS011;2332;38.646;-9.154;2024-02-21T06:07:21;28.30;;;15.47;;
4638;SDS011;2332;38.646;-9.154;2024-02-21T06:09:46;37.33;;;16.10;;
4638;SDS011;2332;38.646;-9.154;2024-02-21T06:12:11;32.20;;;14.07;;
4638;SDS011;2332;38.646;-9.154;2024-02-21T06:14:37;29.37;;;16.10;;
4638;SDS011;2332;38.646;-9.154;2024-02-21T06:17:02;29.60;;;16.30;;
4638;SDS011;2332;38.646;-9.154;2024-02-21T06:19:28;30.77;;;15.73;;
4638;SDS011;2332;38.646;-9.154;2024-02-21T06:21:53;35.43;;;15.80;;
4638;SDS011;2332;38.646;-9.154;2024-02-21T06:24:18;26.00;;;14.63;;
4638;SDS011;2332;38.646;-9.154;2024-02-21T06:26:44;24.90;;;14.87;;
4638;SDS011;2332;38.646;-9.154;2024-02-21T06:29:10;24.00;;;14.57;;
4638;SDS011;2332;38.646;-9.154;2024-02-21T06:31:36;20.53;;;14.03;;
4638;SDS011;2332;38.646;-9.154;2024-02-21T06:34:01;22.73;;;14.50;;
4638;SDS011;2332;38.646;-9.154;2024-02-21T06:36:27;32.53;;;15.73;;
4638;SDS011;2332;38.646;-9.154;2024-02-21T06:38:52;27.70;;;15.90;;
4638;SDS011;2332;38.646;-9.154;2024-02-21T06:41:18;30.10;;;15.83;;
4638;SDS011;2332;38.646;-9.154;2024-02-21T06:43:44;31.60;;;16.00;;
4638;SDS011;2332;38.646;-9.154;2024-02-21T06:46:11;29.00;;;15.53;;
4638;SDS011;2332;38.646;-9.154;2024-02-21T06:48:36;33.30;;;17.80;;
4638;SDS011;2332;38.646;-9.154;2024-02-21T06:51:02;26.93;;;16.33;;
4638;SDS011;2332;38.646;-9.154;2024-02-21T06:53:28;28.00;;;18.10;;
4638;SDS011;2332;38.646;-9.154;2024-02-21T06:55:53;30.53;;;16.60;;
4638;SDS011;2332;38.646;-9.154;2024-02-21T06:58:19;29.70;;;15.67;;
4638;SDS011;2332;38.646;-9.154;2024-02-21T07:00:44;29.90;;;16.20;;
4638;SDS011;2332;38.646;-9.154;2024-02-21T07:03:09;35.77;;;16.80;;
4638;SDS011;2332;38.646;-9.154;2024-02-21T07:05:35;28.87;;;16.83;;
4638;SDS011;2332;38.646;-9.154;2024-02-21T07:08:00;24.17;;;15.40;;
4638;SDS011;2332;38.646;-9.154;2024-02-21T07:10:26;25.83;;;15.80;;
4638;SDS011;2332;38.646;-9.154;2024-02-21T07:12:53;27.60;;;16.70;;
4638;SDS011;2332;38.646;-9.154;2024-02-21T07:15:18;34.40;;;15.80;;
4638;SDS011;2332;38.646;-9.154;2024-02-21T07:17:43;24.30;;;15.17;;
4638;SDS011;2332;38.646;-9.154;2024-02-21T07:20:09;26.60;;;16.43;;
4638;SDS011;2332;38.646;-9.154;2024-02-21T07:22:34;26.10;;;15.50;;
4638;SDS011;2332;38.646;-9.154;2024-02-21T07:25:00;27.97;;;15.40;;
4638;SDS011;2332;38.646;-9.154;2024-02-21T07:27:25;30.97;;;16.30;;
4638;SDS011;2332;38.646;-9.154;2024-02-21T07:29:53;30.87;;;14.80;;
4638;SDS011;2332;38.646;-9.154;2024-02-21T07:32:19;29.90;;;15.97;;
4638;SDS011;2332;38.646;-9.154;2024-02-21T07:34:44;30.60;;;15.37;;
4638;SDS011;2332;38.646;-9.154;2024-02-21T07:37:09;25.57;;;15.50;;
4638;SDS011;2332;38.646;-9.154;2024-02-21T07:39:38;28.50;;;15.30;;
4638;SDS011;2332;38.646;-9.154;2024-02-21T07:42:05;25.40;;;15.63;;
4638;SDS011;2332;38.646;-9.154;2024-02-21T07:44:31;21.07;;;13.40;;
4638;SDS011;2332;38.646;-9.154;2024-02-21T07:46:57;29.70;;;14.83;;
4638;SDS011;2332;38.646;-9.154;2024-02-21T07:49:23;28.90;;;16.60;;
4638;SDS011;2332;38.646;-9.154;2024-02-21T07:51:48;25.10;;;14.43;;
4638;SDS011;2332;38.646;-9.154;2024-02-21T07:54:16;23.43;;;14.60;;
4638;SDS011;2332;38.646;-9.154;2024-02-21T07:56:42;26.30;;;15.90;;
4638;SDS011;2332;38.646;-9.154;2024-02-21T07:59:07;27.13;;;15.30;;
4638;SDS011;2332;38.646;-9.154;2024-02-21T08:01:33;26.40;;;15.60;;
4638;SDS011;2332;38.646;-9.154;2024-02-21T08:03:58;33.00;;;15.90;;
4638;SDS011;2332;38.646;-9.154;2024-02-21T08:06:24;38.87;;;16.53;;
4638;SDS011;2332;38.646;-9.154;2024-02-21T08:08:50;32.23;;;15.43;;
4638;SDS011;2332;38.646;-9.154;2024-02-21T08:11:15;24.83;;;15.00;;
4638;SDS011;2332;38.646;-9.154;2024-02-21T08:13:40;33.07;;;15.37;;
4638;SDS011;2332;38.646;-9.154;2024-02-21T08:16:06;26.43;;;14.23;;
4638;SDS011;2332;38.646;-9.154;2024-02-21T08:18:31;27.40;;;13.90;;
4638;SDS011;2332;38.646;-9.154;2024-02-21T08:20:57;25.67;;;13.10;;
4638;SDS011;2332;38.646;-9.154;2024-02-21T08:23:23;32.30;;;14.77;;
4638;SDS011;2332;38.646;-9.154;2024-02-21T08:25:48;22.87;;;14.77;;
4638;SDS011;2332;38.646;-9.154;2024-02-21T08:28:14;18.67;;;12.93;;
4638;SDS011;2332;38.646;-9.154;2024-02-21T08:30:40;22.03;;;13.93;;
4638;SDS011;2332;38.646;-9.154;2024-02-21T08:33:09;21.47;;;14.37;;
4638;SDS011;2332;38.646;-9.154;2024-02-21T08:35:34;21.10;;;13.30;;
4638;SDS011;2332;38.646;-9.154;2024-02-21T08:38:00;26.13;;;15.20;;
4638;SDS011;2332;38.646;-9.154;2024-02-21T08:40:25;32.60;;;14.40;;
4638;SDS011;2332;38.646;-9.154;2024-02-21T08:42:51;21.83;;;14.43;;
4638;SDS011;2332;38.646;-9.154;2024-02-21T08:45:16;27.37;;;13.80;;
4638;SDS011;2332;38.646;-9.154;2024-02-21T08:47:41;23.83;;;14.13;;
4638;SDS011;2332;38.646;-9.154;2024-02-21T08:50:07;25.47;;;14.30;;
4638;SDS011;2332;38.646;-9.154;2024-02-21T08:52:34;33.57;;;14.47;;
4638;SDS011;2332;38.646;-9.154;2024-02-21T08:55:00;28.17;;;14.17;;
4638;SDS011;2332;38.646;-9.154;2024-02-21T08:57:25;26.47;;;13.60;;
4638;SDS011;2332;38.646;-9.154;2024-02-21T08:59:50;20.50;;;13.23;;
4638;SDS011;2332;38.646;-9.154;2024-02-21T09:02:16;25.83;;;13.80;;
4638;SDS011;2332;38.646;-9.154;2024-02-21T09:04:41;24.77;;;13.77;;
4638;SDS011;2332;38.646;-9.154;2024-02-21T09:07:07;20.60;;;13.23;;
4638;SDS011;2332;38.646;-9.154;2024-02-21T09:09:32;26.93;;;13.80;;
4638;SDS011;2332;38.646;-9.154;2024-02-21T09:11:58;23.50;;;12.33;;
4638;SDS011;2332;38.646;-9.154;2024-02-21T09:14:30;17.87;;;13.00;;
4638;SDS011;2332;38.646;-9.154;2024-02-21T09:16:56;22.77;;;12.43;;
4638;SDS011;2332;38.646;-9.154;2024-02-21T09:19:21;18.47;;;14.07;;
4638;SDS011;2332;38.646;-9.154;2024-02-21T09:21:46;22.00;;;13.03;;
4638;SDS011;2332;38.646;-9.154;2024-02-21T09:24:12;22.47;;;14.20;;
4638;SDS011;2332;38.646;-9.154;2024-02-21T09:26:37;18.90;;;13.40;;
4638;SDS011;2332;38.646;-9.154;2024-02-21T09:29:05;22.17;;;14.13;;
4638;SDS011;2332;38.646;-9.154;2024-02-21T09:31:31;20.83;;;14.77;;
4638;SDS011;2332;38.646;-9.154;2024-02-21T09:33:57;28.00;;;15.33;;
4638;SDS011;2332;38.646;-9.154;2024-02-21T09:36:22;27.13;;;16.13;;
4638;SDS011;2332;38.646;-9.154;2024-02-21T09:38:47;17.37;;;13.63;;
4638;SDS011;2332;38.646;-9.154;2024-02-21T09:41:17;22.33;;;13.87;;
4638;SDS011;2332;38.646;-9.154;2024-02-21T09:43:43;20.57;;;13.77;;
4638;SDS011;2332;38.646;-9.154;2024-02-21T09:46:13;19.33;;;13.70;;
4638;SDS011;2332;38.646;-9.154;2024-02-21T09:51:15;19.40;;;14.50;;
4638;SDS011;2332;38.646;-9.154;2024-02-21T09:53:41;34.67;;;15.33;;
4638;SDS011;2332;38.646;-9.154;2024-02-21T09:56:07;20.80;;;14.63;;
4638;SDS011;2332;38.646;-9.154;2024-02-21T09:58:33;26.47;;;16.20;;
4638;SDS011;2332;38.646;-9.154;2024-02-21T10:00:59;22.27;;;16.60;;
4638;SDS011;2332;38.646;-9.154;2024-02-21T10:03:25;19.03;;;14.20;;
4638;SDS011;2332;38.646;-9.154;2024-02-21T10:05:50;19.80;;;14.30;;
4638;SDS011;2332;38.646;-9.154;2024-02-21T10:08:16;25.30;;;14.70;;
4638;SDS011;2332;38.646;-9.154;2024-02-21T10:10:42;20.00;;;14.73;;
4638;SDS011;2332;38.646;-9.154;2024-02-21T10:13:08;26.07;;;14.53;;
4638;SDS011;2332;38.646;-9.154;2024-02-21T10:15:33;22.93;;;15.70;;
4638;SDS011;2332;38.646;-9.154;2024-02-21T10:17:59;24.03;;;15.10;;
4638;SDS011;2332;38.646;-9.154;2024-02-21T10:20:25;20.07;;;13.73;;
4638;SDS011;2332;38.646;-9.154;2024-02-21T10:22:59;20.23;;;14.90;;
4638;SDS011;2332;38.646;-9.154;2024-02-21T10:25:25;22.03;;;14.23;;
4638;SDS011;2332;38.646;-9.154;2024-02-21T10:27:50;21.23;;;14.37;;
4638;SDS011;2332;38.646;-9.154;2024-02-21T10:30:16;19.73;;;14.10;;
4638;SDS011;2332;38.646;-9.154;2024-02-21T10:32:51;20.73;;;14.50;;
4638;SDS011;2332;38.646;-9.154;2024-02-21T10:35:31;26.50;;;14.40;;
4638;SDS011;2332;38.646;-9.154;2024-02-21T10:37:57;18.30;;;12.83;;
4638;SDS011;2332;38.646;-9.154;2024-02-21T10:40:23;17.23;;;13.37;;
4638;SDS011;2332;38.646;-9.154;2024-02-21T10:42:49;16.77;;;12.80;;
4638;SDS011;2332;38.646;-9.154;2024-02-21T10:45:16;17.10;;;13.70;;
4638;SDS011;2332;38.646;-9.154;2024-02-21T10:47:41;18.40;;;12.37;;
4638;SDS011;2332;38.646;-9.154;2024-02-21T10:50:09;16.60;;;12.07;;
4638;SDS011;2332;38.646;-9.154;2024-02-21T10:55:21;39.50;;;14.67;;
4638;SDS011;2332;38.646;-9.154;2024-02-21T10:57:52;32.03;;;13.40;;
4638;SDS011;2332;38.646;-9.154;2024-02-21T11:00:18;21.57;;;12.20;;
4638;SDS011;2332;38.646;-9.154;2024-02-21T11:02:44;19.93;;;12.10;;
4638;SDS011;2332;38.646;-9.154;2024-02-21T11:05:09;15.40;;;11.57;;
4638;SDS011;2332;38.646;-9.154;2024-02-21T11:07:37;21.07;;;11.70;;
4638;SDS011;2332;38.646;-9.154;2024-02-21T11:10:03;16.17;;;11.07;;
4638;SDS011;2332;38.646;-9.154;2024-02-21T11:12:32;16.83;;;11.37;;
4638;SDS011;2332;38.646;-9.154;2024-02-21T11:15:06;19.33;;;10.90;;
4638;SDS011;2332;38.646;-9.154;2024-02-21T11:17:32;12.77;;;10.43;;
4638;SDS011;2332;38.646;-9.154;2024-02-21T11:19:57;15.53;;;11.47;;
4638;SDS011;2332;38.646;-9.154;2024-02-21T11:22:24;21.87;;;12.00;;
4638;SDS011;2332;38.646;-9.154;2024-02-21T11:24:54;19.70;;;11.97;;
4638;SDS011;2332;38.646;-9.154;2024-02-21T11:27:21;21.07;;;12.63;;
4638;SDS011;2332;38.646;-9.154;2024-02-21T11:29:47;25.37;;;12.23;;
4638;SDS011;2332;38.646;-9.154;2024-02-21T11:32:14;25.00;;;12.60;;
4638;SDS011;2332;38.646;-9.154;2024-02-21T11:34:40;19.23;;;11.80;;
4638;SDS011;2332;38.646;-9.154;2024-02-21T11:37:14;14.70;;;10.70;;
4638;SDS011;2332;38.646;-9.154;2024-02-21T11:39:42;16.17;;;11.87;;
4638;SDS011;2332;38.646;-9.154;2024-02-21T11:42:08;18.10;;;12.20;;
4638;SDS011;2332;38.646;-9.154;2024-02-21T11:44:34;23.23;;;11.83;;
4638;SDS011;2332;38.646;-9.154;2024-02-21T11:47:00;21.40;;;12.20;;
4638;SDS011;2332;38.646;-9.154;2024-02-21T11:49:26;19.70;;;12.77;;
4638;SDS011;2332;38.646;-9.154;2024-02-21T11:52:01;18.27;;;12.60;;
4638;SDS011;2332;38.646;-9.154;2024-02-21T11:54:29;23.60;;;12.33;;
4638;SDS011;2332;38.646;-9.154;2024-02-21T11:56:54;20.53;;;12.17;;
4638;SDS011;2332;38.646;-9.154;2024-02-21T11:59:20;15.20;;;11.20;;
4638;SDS011;2332;38.646;-9.154;2024-02-21T12:01:46;22.30;;;12.17;;
4638;SDS011;2332;38.646;-9.154;2024-02-21T12:04:11;17.57;;;12.77;;
4638;SDS011;2332;38.646;-9.154;2024-02-21T12:06:37;18.90;;;12.73;;
4638;SDS011;2332;38.646;-9.154;2024-02-21T12:09:05;22.10;;;11.73;;
4638;SDS011;2332;38.646;-9.154;2024-02-21T12:11:34;21.43;;;13.33;;
4638;SDS011;2332;38.646;-9.154;2024-02-21T12:14:00;25.33;;;13.37;;
4638;SDS011;2332;38.646;-9.154;2024-02-21T12:16:29;20.17;;;12.87;;
4638;SDS011;2332;38.646;-9.154;2024-02-21T12:18:55;19.27;;;12.70;;
4638;SDS011;2332;38.646;-9.154;2024-02-21T12:21:29;21.53;;;7.03;;
4638;SDS011;2332;38.646;-9.154;2024-02-21T12:23:55;16.40;;;6.23;;
4638;SDS011;2332;38.646;-9.154;2024-02-21T12:26:21;22.93;;;7.27;;
4638;SDS011;2332;38.646;-9.154;2024-02-21T12:28:46;19.87;;;7.67;;
4638;SDS011;2332;38.646;-9.154;2024-02-21T12:31:12;15.60;;;6.50;;
4638;SDS011;2332;38.646;-9.154;2024-02-21T12:33:37;15.43;;;6.60;;
4638;SDS011;2332;38.646;-9.154;2024-02-21T12:36:03;12.80;;;5.60;;
4638;SDS011;2332;38.646;-9.154;2024-02-21T12:38:29;14.53;;;5.53;;
4638;SDS011;2332;38.646;-9.154;2024-02-21T12:40:54;23.87;;;5.73;;
4638;SDS011;2332;38.646;-9.154;2024-02-21T12:43:20;12.83;;;5.20;;
4638;SDS011;2332;38.646;-9.154;2024-02-21T12:45:45;10.20;;;4.60;;
4638;SDS011;2332;38.646;-9.154;2024-02-21T12:48:16;11.50;;;5.40;;
4638;SDS011;2332;38.646;-9.154;2024-02-21T12:50:49;14.63;;;4.80;;
4638;SDS011;2332;38.646;-9.154;2024-02-21T12:53:20;11.27;;;4.80;;
4638;SDS011;2332;38.646;-9.154;2024-02-21T12:55:49;13.03;;;5.10;;
4638;SDS011;2332;38.646;-9.154;2024-02-21T12:58:15;12.27;;;4.93;;
4638;SDS011;2332;38.646;-9.154;2024-02-21T13:00:40;12.03;;;4.83;;
4638;SDS011;2332;38.646;-9.154;2024-02-21T13:03:06;14.23;;;6.00;;
4638;SDS011;2332;38.646;-9.154;2024-02-21T13:05:32;12.40;;;5.97;;
4638;SDS011;2332;38.646;-9.154;2024-02-21T13:07:57;11.80;;;5.50;;
4638;SDS011;2332;38.646;-9.154;2024-02-21T13:10:23;14.10;;;5.97;;
4638;SDS011;2332;38.646;-9.154;2024-02-21T13:12:48;8.60;;;5.90;;
4638;SDS011;2332;38.646;-9.154;2024-02-21T13:15:13;11.93;;;4.87;;
4638;SDS011;2332;38.646;-9.154;2024-02-21T13:17:41;15.53;;;5.63;;
4638;SDS011;2332;38.646;-9.154;2024-02-21T13:20:06;12.50;;;4.93;;
4638;SDS011;2332;38.646;-9.154;2024-02-21T13:22:33;17.03;;;5.27;;
4638;SDS011;2332;38.646;-9.154;2024-02-21T13:24:58;10.63;;;4.80;;
4638;SDS011;2332;38.646;-9.154;2024-02-21T13:27:24;14.77;;;5.50;;
4638;SDS011;2332;38.646;-9.154;2024-02-21T13:29:49;12.87;;;5.30;;
4638;SDS011;2332;38.646;-9.154;2024-02-21T13:32:15;18.73;;;5.17;;
4638;SDS011;2332;38.646;-9.154;2024-02-21T13:34:41;18.90;;;5.07;;
4638;SDS011;2332;38.646;-9.154;2024-02-21T13:37:07;16.33;;;5.77;;
4638;SDS011;2332;38.646;-9.154;2024-02-21T13:39:35;12.00;;;5.20;;
4638;SDS011;2332;38.646;-9.154;2024-02-21T13:42:00;8.97;;;4.60;;
4638;SDS011;2332;38.646;-9.154;2024-02-21T13:44:25;14.37;;;4.70;;
4638;SDS011;2332;38.646;-9.154;2024-02-21T13:46:51;15.20;;;5.43;;
4638;SDS011;2332;38.646;-9.154;2024-02-21T13:49:16;11.93;;;5.10;;
4638;SDS011;2332;38.646;-9.154;2024-02-21T13:51:41;14.10;;;4.40;;
4638;SDS011;2332;38.646;-9.154;2024-02-21T13:54:09;9.83;;;4.50;;
4638;SDS011;2332;38.646;-9.154;2024-02-21T13:56:36;7.77;;;4.20;;
4638;SDS011;2332;38.646;-9.154;2024-02-21T13:59:01;9.77;;;4.73;;
4638;SDS011;2332;38.646;-9.154;2024-02-21T14:01:27;10.10;;;4.23;;
4638;SDS011;2332;38.646;-9.154;2024-02-21T14:03:57;11.30;;;4.40;;
4638;SDS011;2332;38.646;-9.154;2024-02-21T14:06:22;10.77;;;4.30;;
4638;SDS011;2332;38.646;-9.154;2024-02-21T14:08:47;8.07;;;4.40;;
4638;SDS011;2332;38.646;-9.154;2024-02-21T14:11:13;6.33;;;3.47;;
4638;SDS011;2332;38.646;-9.154;2024-02-21T14:13:39;5.83;;;3.60;;
4638;SDS011;2332;38.646;-9.154;2024-02-21T14:16:09;8.90;;;3.00;;
4638;SDS011;2332;38.646;-9.154;2024-02-21T14:18:36;5.27;;;2.60;;
4638;SDS011;2332;38.646;-9.154;2024-02-21T14:21:02;6.70;;;2.83;;
4638;SDS011;2332;38.646;-9.154;2024-02-21T14:23:28;5.73;;;3.10;;
4638;SDS011;2332;38.646;-9.154;2024-02-21T14:25:54;8.90;;;2.83;;
4638;SDS011;2332;38.646;-9.154;2024-02-21T14:28:19;3.20;;;2.07;;
4638;SDS011;2332;38.646;-9.154;2024-02-21T14:30:45;8.20;;;3.20;;
4638;SDS011;2332;38.646;-9.154;2024-02-21T14:33:12;6.87;;;3.10;;
4638;SDS011;2332;38.646;-9.154;2024-02-21T14:35:38;4.63;;;2.90;;